Aviosuperficie G. Carrer

LIDW · 威尼托, 意大利

使用的METAR站距离机场26 km。
罗盘
风向 的 风向 的 风向 到 风向 050° Aviosuperficie G. Carrer 14/32
风: 7 kt, 3 beaufort

1 kt

7 kt
改变
0 ft 1.000 2.000 3.000 4.000 5.000
Cloud Cloud
FEW 3.000
METAR LIPZ 281850Z 05007KT 330V100 9999 FEW030TCU 21/14 Q1014 NOSIG

METAR Aviosuperficie G. Carrer - LIDW

Aviosuperficie G. Carrer是,意大利中的小机场。 该机场位于纬度45,69937和经度12,54314。 该机场有一条跑道: 14/32. 本场的ICAO机场代码为LIDW。 机场在Milano FIR中。

该航空气象观测是针对Venice Marco Polo Airport在2024年5月28日 20:50, 当地时间进行的。

机场观察

风向为050°,速度为7 kt。 风向在330°和100°之间变化。

可见度为10 km 或者更多。

有几云 高耸的积云在3.000 ft的高度。 没有观察到天花板。

温度和风寒是21 °C。 露点为14 °C,相对湿度为64%。 海平面上的气压为1014 hPa (QNH)。

白天

今天,太阳从05:25升起,在20:48降落。 这适用于Aviosuperficie G. Carrer,世界夏令时可能有所不同。 当地时间与世界标准时间之间的时差为+2 小时。 夏令时目前正在进行中。

公司介绍

我们没有关于这个机场的公司信息。

体会

到Vliegles.nl去找飞行课程,跳伞和其他飞行体验。 浏览页面,了解Aviosuperficie G. Carrer附近所有可用的活动。 你也可以使用搜索功能来寻找你所在地附近的特定飞行课程、跳伞或其他飞行体验。

跑道

Id 标题 侧风 逆风 侧风 %
14/32 149°-329° 7 kt 1 kt 99 %

逆风成分最大的方向会被突出显示,并用于横风计算。 这并不一定意味着这个方向在使用。

乌云

3.000 ft FEW 几云 高耸的积云

温度 & 天气

温度 21 °C
露点 14 °C
相对湿度 64%
Kp-index 1 (0-9)

白天

日出
05:27 (8:08)
中午
13:07
日落
20:48

小工具

你想在你的网站上有一个关于Aviosuperficie G. Carrer的当前航空天气(METAR)的小部件吗?

显示HTML代码
报告变更